sensor_id;sensor_type;location;lat;lon;timestamp;pressure;altitude;pressure_sealevel;temperature;humidity
74627;BME280;63132;52.268;5.192;2023-03-01T00:02:03;103206.19;;;-3.40;88.82
74627;BME280;63132;52.268;5.192;2023-03-01T00:04:30;103199.19;;;-3.43;88.52
74627;BME280;63132;52.268;5.192;2023-03-01T00:06:55;103196.59;;;-3.43;88.72
74627;BME280;63132;52.268;5.192;2023-03-01T00:09:21;103186.94;;;-3.47;88.67
74627;BME280;63132;52.268;5.192;2023-03-01T00:11:46;103200.84;;;-3.47;88.24
74627;BME280;63132;52.268;5.192;2023-03-01T00:14:12;103200.13;;;-3.39;88.42
74627;BME280;63132;52.268;5.192;2023-03-01T00:16:40;103192.94;;;-3.53;88.19
74627;BME280;63132;52.268;5.192;2023-03-01T00:19:07;103191.16;;;-3.55;88.13
74627;BME280;63132;52.268;5.192;2023-03-01T00:21:34;103190.28;;;-3.56;88.27
74627;BME280;63132;52.268;5.192;2023-03-01T00:24:01;103190.91;;;-3.70;88.14
74627;BME280;63132;52.268;5.192;2023-03-01T00:26:26;103179.75;;;-3.62;88.13
74627;BME280;63132;52.268;5.192;2023-03-01T00:28:52;103178.03;;;-3.62;88.35
74627;BME280;63132;52.268;5.192;2023-03-01T00:31:20;103181.81;;;-3.46;88.28
74627;BME280;63132;52.268;5.192;2023-03-01T00:33:47;103180.59;;;-3.65;87.82
74627;BME280;63132;52.268;5.192;2023-03-01T00:36:14;103168.50;;;-3.61;88.08
74627;BME280;63132;52.268;5.192;2023-03-01T00:38:43;103178.06;;;-3.60;88.18
74627;BME280;63132;52.268;5.192;2023-03-01T00:41:14;103172.03;;;-3.59;87.66
74627;BME280;63132;52.268;5.192;2023-03-01T00:43:40;103173.53;;;-3.71;87.32
74627;BME280;63132;52.268;5.192;2023-03-01T00:46:07;103175.44;;;-3.60;87.41
74627;BME280;63132;52.268;5.192;2023-03-01T00:48:35;103170.13;;;-3.66;87.52
74627;BME280;63132;52.268;5.192;2023-03-01T00:51:23;103171.75;;;-3.73;87.26
74627;BME280;63132;52.268;5.192;2023-03-01T00:53:57;103169.16;;;-3.73;87.17
74627;BME280;63132;52.268;5.192;2023-03-01T00:56:23;103169.06;;;-3.78;87.50
74627;BME280;63132;52.268;5.192;2023-03-01T00:58:49;103168.28;;;-3.72;87.68
74627;BME280;63132;52.268;5.192;2023-03-01T01:01:24;103174.22;;;-3.81;87.61
74627;BME280;63132;52.268;5.192;2023-03-01T01:03:58;103172.50;;;-3.81;87.81
74627;BME280;63132;52.268;5.192;2023-03-01T01:06:32;103165.16;;;-4.00;87.53
74627;BME280;63132;52.268;5.192;2023-03-01T01:08:58;103161.00;;;-3.92;87.87
74627;BME280;63132;52.268;5.192;2023-03-01T01:11:27;103160.06;;;-3.96;87.91
74627;BME280;63132;52.268;5.192;2023-03-01T01:13:53;103155.09;;;-3.83;88.06
74627;BME280;63132;52.268;5.192;2023-03-01T01:16:21;103156.72;;;-3.88;87.69
74627;BME280;63132;52.268;5.192;2023-03-01T01:18:47;103149.84;;;-3.85;87.60
74627;BME280;63132;52.268;5.192;2023-03-01T01:21:15;103148.97;;;-3.85;87.64
74627;BME280;63132;52.268;5.192;2023-03-01T01:23:42;103146.09;;;-4.01;87.65
74627;BME280;63132;52.268;5.192;2023-03-01T01:26:10;103144.56;;;-3.89;87.54
74627;BME280;63132;52.268;5.192;2023-03-01T01:28:36;103138.47;;;-3.92;87.67
74627;BME280;63132;52.268;5.192;2023-03-01T01:31:02;103134.13;;;-3.91;87.42
74627;BME280;63132;52.268;5.192;2023-03-01T01:33:28;103137.63;;;-3.89;87.58
74627;BME280;63132;52.268;5.192;2023-03-01T01:35:53;103133.13;;;-3.99;87.46
74627;BME280;63132;52.268;5.192;2023-03-01T01:38:19;103129.59;;;-4.03;87.50
74627;BME280;63132;52.268;5.192;2023-03-01T01:40:49;103133.03;;;-4.04;87.64
74627;BME280;63132;52.268;5.192;2023-03-01T01:43:27;103134.66;;;-4.09;87.58
74627;BME280;63132;52.268;5.192;2023-03-01T01:46:14;103133.13;;;-3.99;87.85
74627;BME280;63132;52.268;5.192;2023-03-01T01:48:44;103122.59;;;-4.06;87.51
74627;BME280;63132;52.268;5.192;2023-03-01T01:51:16;103114.63;;;-4.13;87.61
74627;BME280;63132;52.268;5.192;2023-03-01T01:53:44;103118.81;;;-4.22;87.74
74627;BME280;63132;52.268;5.192;2023-03-01T01:56:13;103121.34;;;-4.25;87.85
74627;BME280;63132;52.268;5.192;2023-03-01T01:58:40;103119.66;;;-4.23;87.52
74627;BME280;63132;52.268;5.192;2023-03-01T02:01:07;103117.78;;;-4.32;87.84
74627;BME280;63132;52.268;5.192;2023-03-01T02:03:34;103119.78;;;-4.18;87.90
74627;BME280;63132;52.268;5.192;2023-03-01T02:06:22;103115.25;;;-4.27;87.68
74627;BME280;63132;52.268;5.192;2023-03-01T02:08:55;103119.66;;;-4.23;87.52
74627;BME280;63132;52.268;5.192;2023-03-01T02:11:23;103122.06;;;-4.34;87.73
74627;BME280;63132;52.268;5.192;2023-03-01T02:13:49;103118.59;;;-4.33;87.87
74627;BME280;63132;52.268;5.192;2023-03-01T02:16:16;103110.91;;;-4.28;87.74
74627;BME280;63132;52.268;5.192;2023-03-01T02:18:41;103112.66;;;-4.27;87.83
74627;BME280;63132;52.268;5.192;2023-03-01T02:23:53;103107.56;;;-4.21;87.42
74627;BME280;63132;52.268;5.192;2023-03-01T02:29:02;103105.88;;;-4.19;87.26
74627;BME280;63132;52.268;5.192;2023-03-01T02:31:28;103109.91;;;-4.33;87.29
74627;BME280;63132;52.268;5.192;2023-03-01T02:34:14;103108.16;;;-4.36;87.19
74627;BME280;63132;52.268;5.192;2023-03-01T02:36:44;103101.28;;;-4.32;87.21
74627;BME280;63132;52.268;5.192;2023-03-01T02:39:14;103102.22;;;-4.29;87.57
74627;BME280;63132;52.268;5.192;2023-03-01T02:41:44;103091.84;;;-4.27;87.72
74627;BME280;63132;52.268;5.192;2023-03-01T02:44:11;103087.34;;;-4.36;87.37
74627;BME280;63132;52.268;5.192;2023-03-01T02:46:43;103089.84;;;-4.41;87.37
74627;BME280;63132;52.268;5.192;2023-03-01T02:54:36;103075.16;;;-4.38;87.36
74627;BME280;63132;52.268;5.192;2023-03-01T02:57:03;103082.00;;;-4.44;87.25
74627;BME280;63132;52.268;5.192;2023-03-01T02:59:31;103081.06;;;-4.47;87.10
74627;BME280;63132;52.268;5.192;2023-03-01T03:02:07;103084.53;;;-4.47;87.06
74627;BME280;63132;52.268;5.192;2023-03-01T03:04:33;103070.75;;;-4.43;87.17
74627;BME280;63132;52.268;5.192;2023-03-01T03:06:59;103071.56;;;-4.45;87.67
74627;BME280;63132;52.268;5.192;2023-03-01T03:09:24;103076.78;;;-4.45;87.67
74627;BME280;63132;52.268;5.192;2023-03-01T03:11:50;103066.28;;;-4.50;87.01
74627;BME280;63132;52.268;5.192;2023-03-01T03:14:16;103074.03;;;-4.53;87.03
74627;BME280;63132;52.268;5.192;2023-03-01T03:16:44;103073.88;;;-4.59;87.14
74627;BME280;63132;52.268;5.192;2023-03-01T03:19:10;103072.16;;;-4.60;86.96
74627;BME280;63132;52.268;5.192;2023-03-01T03:21:35;103065.31;;;-4.55;87.41
74627;BME280;63132;52.268;5.192;2023-03-01T03:24:01;103060.84;;;-4.63;87.75
74627;BME280;63132;52.268;5.192;2023-03-01T03:26:27;103060.91;;;-4.58;87.71
74627;BME280;63132;52.268;5.192;2023-03-01T03:28:52;103052.28;;;-4.58;87.70
74627;BME280;63132;52.268;5.192;2023-03-01T03:31:18;103050.72;;;-4.48;88.07
74627;BME280;63132;52.268;5.192;2023-03-01T03:33:43;103046.34;;;-4.51;87.81
74627;BME280;63132;52.268;5.192;2023-03-01T03:36:09;103049.78;;;-4.52;87.68
74627;BME280;63132;52.268;5.192;2023-03-01T03:38:39;103040.22;;;-4.55;87.27
74627;BME280;63132;52.268;5.192;2023-03-01T03:41:06;103046.06;;;-4.64;87.28
74627;BME280;63132;52.268;5.192;2023-03-01T03:43:35;103041.78;;;-4.61;87.29
74627;BME280;63132;52.268;5.192;2023-03-01T03:46:02;103041.75;;;-4.65;86.85
74627;BME280;63132;52.268;5.192;2023-03-01T03:48:36;103045.22;;;-4.64;87.54
74627;BME280;63132;52.268;5.192;2023-03-01T03:51:02;103049.53;;;-4.65;87.40
74627;BME280;63132;52.268;5.192;2023-03-01T03:53:30;103041.78;;;-4.63;87.06
74627;BME280;63132;52.268;5.192;2023-03-01T03:55:55;103038.13;;;-4.71;87.35
74627;BME280;63132;52.268;5.192;2023-03-01T03:58:23;103041.53;;;-4.76;87.10
74627;BME280;63132;52.268;5.192;2023-03-01T04:00:51;103042.53;;;-4.69;87.25
74627;BME280;63132;52.268;5.192;2023-03-01T04:03:17;103044.16;;;-4.74;87.82
74627;BME280;63132;52.268;5.192;2023-03-01T04:05:44;103036.34;;;-4.76;87.25
74627;BME280;63132;52.268;5.192;2023-03-01T04:08:10;103044.97;;;-4.77;87.86
74627;BME280;63132;52.268;5.192;2023-03-01T04:10:39;103041.41;;;-4.82;87.38
74627;BME280;63132;52.268;5.192;2023-03-01T04:13:07;103046.63;;;-4.80;87.22
74627;BME280;63132;52.268;5.192;2023-03-01T04:15:33;103038.75;;;-4.85;87.28
74627;BME280;63132;52.268;5.192;2023-03-01T04:17:59;103046.66;;;-4.77;87.48
74627;BME280;63132;52.268;5.192;2023-03-01T04:20:29;103045.72;;;-4.81;87.64
74627;BME280;63132;52.268;5.192;2023-03-01T04:23:08;103044.03;;;-4.79;87.23
74627;BME280;63132;52.268;5.192;2023-03-01T04:25:54;103043.25;;;-4.76;87.31
74627;BME280;63132;52.268;5.192;2023-03-01T04:28:46;103040.47;;;-4.85;86.92
74627;BME280;63132;52.268;5.192;2023-03-01T04:31:16;103036.91;;;-4.91;87.01
74627;BME280;63132;52.268;5.192;2023-03-01T04:33:48;103043.81;;;-4.90;87.25
74627;BME280;63132;52.268;5.192;2023-03-01T04:36:15;103040.28;;;-4.93;87.24
74627;BME280;63132;52.268;5.192;2023-03-01T04:38:41;103031.91;;;-4.80;87.49
74627;BME280;63132;52.268;5.192;2023-03-01T04:41:09;103038.63;;;-4.90;87.50
74627;BME280;63132;52.268;5.192;2023-03-01T04:43:35;103033.28;;;-4.96;87.09
74627;BME280;63132;52.268;5.192;2023-03-01T04:46:05;103025.53;;;-4.94;86.95
74627;BME280;63132;52.268;5.192;2023-03-01T04:48:32;103030.69;;;-4.96;86.95
74627;BME280;63132;52.268;5.192;2023-03-01T04:50:59;103029.94;;;-4.92;87.13
74627;BME280;63132;52.268;5.192;2023-03-01T04:53:24;103027.53;;;-4.82;87.01
74627;BME280;63132;52.268;5.192;2023-03-01T04:55:50;103030.06;;;-4.85;87.28
74627;BME280;63132;52.268;5.192;2023-03-01T04:58:16;103029.03;;;-4.92;87.22
74627;BME280;63132;52.268;5.192;2023-03-01T05:00:41;103028.19;;;-4.93;87.18
74627;BME280;63132;52.268;5.192;2023-03-01T05:03:08;103025.59;;;-4.93;86.86
74627;BME280;63132;52.268;5.192;2023-03-01T05:05:34;103019.28;;;-5.04;86.91
74627;BME280;63132;52.268;5.192;2023-03-01T05:08:04;103016.75;;;-5.01;87.01
74627;BME280;63132;52.268;5.192;2023-03-01T05:10:31;103014.94;;;-5.05;86.62
74627;BME280;63132;52.268;5.192;2023-03-01T05:12:58;103008.09;;;-5.00;86.79
74627;BME280;63132;52.268;5.192;2023-03-01T05:15:25;103006.47;;;-4.96;87.00
74627;BME280;63132;52.268;5.192;2023-03-01T05:17:51;103011.53;;;-5.03;86.71
74627;BME280;63132;52.268;5.192;2023-03-01T05:20:17;103003.78;;;-5.01;87.40
74627;BME280;63132;52.268;5.192;2023-03-01T05:22:43;102989.03;;;-5.02;86.89
74627;BME280;63132;52.268;5.192;2023-03-01T05:25:08;102990.78;;;-5.01;87.12
74627;BME280;63132;52.268;5.192;2023-03-01T05:27:34;102993.28;;;-5.06;87.02
74627;BME280;63132;52.268;5.192;2023-03-01T05:30:00;102988.91;;;-5.08;86.74
74627;BME280;63132;52.268;5.192;2023-03-01T05:32:41;102988.13;;;-5.04;87.35
74627;BME280;63132;52.268;5.192;2023-03-01T05:35:08;102987.25;;;-5.05;87.34
74627;BME280;63132;52.268;5.192;2023-03-01T05:37:34;102975.84;;;-5.12;86.95
74627;BME280;63132;52.268;5.192;2023-03-01T05:40:01;102969.78;;;-5.12;87.27
74627;BME280;63132;52.268;5.192;2023-03-01T05:42:26;102980.09;;;-5.15;87.06
74627;BME280;63132;52.268;5.192;2023-03-01T05:44:51;102974.88;;;-5.17;87.05
74627;BME280;63132;52.268;5.192;2023-03-01T05:47:17;102975.75;;;-5.16;87.34
74627;BME280;63132;52.268;5.192;2023-03-01T05:49:42;102970.59;;;-5.15;87.44
74627;BME280;63132;52.268;5.192;2023-03-01T05:52:07;102966.25;;;-5.16;87.42
74627;BME280;63132;52.268;5.192;2023-03-01T05:54:33;102965.44;;;-5.13;86.96
74627;BME280;63132;52.268;5.192;2023-03-01T05:56:58;102961.19;;;-5.09;87.19
74627;BME280;63132;52.268;5.192;2023-03-01T05:59:24;102963.59;;;-5.17;86.87
74627;BME280;63132;52.268;5.192;2023-03-01T06:01:49;102958.38;;;-5.20;86.66
74627;BME280;63132;52.268;5.192;2023-03-01T06:04:15;102962.50;;;-5.29;86.55
74627;BME280;63132;52.268;5.192;2023-03-01T06:06:40;102966.06;;;-5.25;87.14
74627;BME280;63132;52.268;5.192;2023-03-01T06:09:06;102959.16;;;-5.23;87.14
74627;BME280;63132;52.268;5.192;2023-03-01T06:11:35;102954.03;;;-5.21;87.23
74627;BME280;63132;52.268;5.192;2023-03-01T06:14:00;102965.25;;;-5.21;86.64
74627;BME280;63132;52.268;5.192;2023-03-01T06:16:25;102958.31;;;-5.24;86.74
74627;BME280;63132;52.268;5.192;2023-03-01T06:18:51;102961.75;;;-5.23;87.37
74627;BME280;63132;52.268;5.192;2023-03-01T06:21:16;102960.00;;;-5.26;86.78
74627;BME280;63132;52.268;5.192;2023-03-01T06:23:41;102960.03;;;-5.24;86.67
74627;BME280;63132;52.268;5.192;2023-03-01T06:26:08;102960.81;;;-5.27;87.01
74627;BME280;63132;52.268;5.192;2023-03-01T06:28:34;102964.28;;;-5.28;86.90
74627;BME280;63132;52.268;5.192;2023-03-01T06:31:00;102960.75;;;-5.31;86.46
74627;BME280;63132;52.268;5.192;2023-03-01T06:33:25;102963.50;;;-5.24;86.58
74627;BME280;63132;52.268;5.192;2023-03-01T06:35:51;102966.00;;;-5.27;87.13
74627;BME280;63132;52.268;5.192;2023-03-01T06:38:19;102971.34;;;-5.20;86.74
74627;BME280;63132;52.268;5.192;2023-03-01T06:40:45;102972.25;;;-5.18;86.52
74627;BME280;63132;52.268;5.192;2023-03-01T06:43:16;102971.34;;;-5.20;86.14
74627;BME280;63132;52.268;5.192;2023-03-01T06:45:41;102967.09;;;-5.17;86.90
74627;BME280;63132;52.268;5.192;2023-03-01T06:48:08;102975.97;;;-5.05;87.18
74627;BME280;63132;52.268;5.192;2023-03-01T06:50:34;102973.56;;;-4.96;87.24
74627;BME280;63132;52.268;5.192;2023-03-01T06:53:00;102970.00;;;-5.01;86.79
74627;BME280;63132;52.268;5.192;2023-03-01T06:55:25;102964.81;;;-5.01;87.02
74627;BME280;63132;52.268;5.192;2023-03-01T06:57:55;102963.97;;;-5.00;86.67
74627;BME280;63132;52.268;5.192;2023-03-01T07:00:21;102970.22;;;-4.90;86.42
74627;BME280;63132;52.268;5.192;2023-03-01T07:02:47;102977.09;;;-4.92;86.36
74627;BME280;63132;52.268;5.192;2023-03-01T07:05:12;102970.19;;;-4.92;86.53
74627;BME280;63132;52.268;5.192;2023-03-01T07:07:38;102972.91;;;-4.87;86.26
74627;BME280;63132;52.268;5.192;2023-03-01T07:10:03;102971.13;;;-4.88;86.61
74627;BME280;63132;52.268;5.192;2023-03-01T07:12:29;102971.25;;;-4.83;86.40
74627;BME280;63132;52.268;5.192;2023-03-01T07:14:54;102973.91;;;-4.79;85.88
74627;BME280;63132;52.268;5.192;2023-03-01T07:17:20;102978.44;;;-4.70;85.91
74627;BME280;63132;52.268;5.192;2023-03-01T07:19:45;102976.63;;;-4.74;85.65
74627;BME280;63132;52.268;5.192;2023-03-01T07:22:11;102975.78;;;-4.71;85.57
74627;BME280;63132;52.268;5.192;2023-03-01T07:24:36;102977.59;;;-4.67;85.91
74627;BME280;63132;52.268;5.192;2023-03-01T07:27:02;102978.53;;;-4.64;85.92
74627;BME280;63132;52.268;5.192;2023-03-01T07:29:27;102982.00;;;-4.63;85.74
74627;BME280;63132;52.268;5.192;2023-03-01T07:31:54;102986.44;;;-4.59;86.08
74627;BME280;63132;52.268;5.192;2023-03-01T07:34:19;102980.44;;;-4.55;86.05
74627;BME280;63132;52.268;5.192;2023-03-01T07:36:45;102983.94;;;-4.53;85.98
74627;BME280;63132;52.268;5.192;2023-03-01T07:39:11;102992.69;;;-4.49;86.47
74627;BME280;63132;52.268;5.192;2023-03-01T07:41:36;102978.06;;;-4.42;86.07
74627;BME280;63132;52.268;5.192;2023-03-01T07:44:02;102989.34;;;-4.42;86.15
74627;BME280;63132;52.268;5.192;2023-03-01T07:46:27;102984.28;;;-4.35;86.02
74627;BME280;63132;52.268;5.192;2023-03-01T07:48:53;102978.22;;;-4.33;86.61
74627;BME280;63132;52.268;5.192;2023-03-01T07:51:18;102978.31;;;-4.30;86.61
74627;BME280;63132;52.268;5.192;2023-03-01T07:53:46;102974.16;;;-4.18;86.57
74627;BME280;63132;52.268;5.192;2023-03-01T07:56:14;102980.88;;;-3.78;87.18
74627;BME280;63132;52.268;5.192;2023-03-01T07:58:42;102978.06;;;-3.32;87.94
74627;BME280;63132;52.268;5.192;2023-03-01T08:01:10;102977.69;;;-2.93;87.78
74627;BME280;63132;52.268;5.192;2023-03-01T08:03:37;102980.47;;;-2.78;87.00
74627;BME280;63132;52.268;5.192;2023-03-01T08:06:03;102975.25;;;-2.79;86.56
74627;BME280;63132;52.268;5.192;2023-03-01T08:08:28;102977.13;;;-2.67;86.15
74627;BME280;63132;52.268;5.192;2023-03-01T08:11:00;102977.25;;;-2.55;85.72
74627;BME280;63132;52.268;5.192;2023-03-01T08:13:26;102977.25;;;-2.56;85.17
74627;BME280;63132;52.268;5.192;2023-03-01T08:15:52;102977.28;;;-2.52;85.09
74627;BME280;63132;52.268;5.192;2023-03-01T08:18:19;102977.34;;;-2.47;84.53
74627;BME280;63132;52.268;5.192;2023-03-01T08:20:44;102972.34;;;-2.23;84.43
74627;BME280;63132;52.268;5.192;2023-03-01T08:23:10;102970.56;;;-2.28;84.50
74627;BME280;63132;52.268;5.192;2023-03-01T08:25:35;102972.47;;;-2.09;83.59
74627;BME280;63132;52.268;5.192;2023-03-01T08:28:01;102980.38;;;-1.98;82.21
74627;BME280;63132;52.268;5.192;2023-03-01T08:30:26;102970.88;;;-1.90;82.21
74627;BME280;63132;52.268;5.192;2023-03-01T08:32:52;102976.09;;;-1.88;82.81
74627;BME280;63132;52.268;5.192;2023-03-01T08:35:18;102973.59;;;-1.76;80.83
74627;BME280;63132;52.268;5.192;2023-03-01T08:37:44;102964.97;;;-1.67;81.85
74627;BME280;63132;52.268;5.192;2023-03-01T08:40:10;102966.00;;;-1.35;78.56
74627;BME280;63132;52.268;5.192;2023-03-01T08:42:36;102961.66;;;-1.35;78.27
74627;BME280;63132;52.268;5.192;2023-03-01T08:45:03;102953.09;;;-1.07;76.43
74627;BME280;63132;52.268;5.192;2023-03-01T08:47:29;102958.34;;;-0.93;75.14
74627;BME280;63132;52.268;5.192;2023-03-01T08:49:54;102959.22;;;-1.00;74.95
74627;BME280;63132;52.268;5.192;2023-03-01T08:52:20;102960.13;;;-0.86;76.53
74627;BME280;63132;52.268;5.192;2023-03-01T08:54:47;102953.22;;;-0.55;74.84
74627;BME280;63132;52.268;5.192;2023-03-01T08:57:12;102951.44;;;-0.70;77.28
74627;BME280;63132;52.268;5.192;2023-03-01T08:59:38;102952.38;;;-0.57;76.85
74627;BME280;63132;52.268;5.192;2023-03-01T09:02:04;102942.78;;;-0.05;72.67
74627;BME280;63132;52.268;5.192;2023-03-01T09:04:29;102937.56;;;0.01;72.32
74627;BME280;63132;52.268;5.192;2023-03-01T09:06:55;102944.53;;;0.21;70.79
74627;BME280;63132;52.268;5.192;2023-03-01T09:09:20;102943.66;;;0.13;71.44
74627;BME280;63132;52.268;5.192;2023-03-01T09:11:46;102941.88;;;0.27;70.30
74627;BME280;63132;52.268;5.192;2023-03-01T09:14:12;102935.78;;;0.31;69.33
74627;BME280;63132;52.268;5.192;2023-03-01T09:16:38;102928.78;;;0.38;69.06
74627;BME280;63132;52.268;5.192;2023-03-01T09:19:04;102914.81;;;0.33;69.86
74627;BME280;63132;52.268;5.192;2023-03-01T09:21:30;102911.34;;;0.32;69.64
74627;BME280;63132;52.268;5.192;2023-03-01T09:23:57;102921.78;;;0.51;68.41
74627;BME280;63132;52.268;5.192;2023-03-01T09:26:24;102910.44;;;0.49;68.67
74627;BME280;63132;52.268;5.192;2023-03-01T09:28:54;102915.69;;;0.37;70.15
74627;BME280;63132;52.268;5.192;2023-03-01T09:31:21;102911.31;;;0.45;69.93
74627;BME280;63132;52.268;5.192;2023-03-01T09:33:48;102905.09;;;0.69;68.15
74627;BME280;63132;52.268;5.192;2023-03-01T09:36:16;102906.84;;;0.74;67.80
74627;BME280;63132;52.268;5.192;2023-03-01T09:38:42;102910.34;;;0.63;69.30
74627;BME280;63132;52.268;5.192;2023-03-01T09:43:55;102912.78;;;1.05;66.14
74627;BME280;63132;52.268;5.192;2023-03-01T09:46:23;102912.72;;;1.18;65.48
74627;BME280;63132;52.268;5.192;2023-03-01T09:48:56;102911.88;;;1.16;65.50
74627;BME280;63132;52.268;5.192;2023-03-01T09:51:34;102913.66;;;1.08;66.33
74627;BME280;63132;52.268;5.192;2023-03-01T09:54:04;102922.44;;;1.05;66.57
74627;BME280;63132;52.268;5.192;2023-03-01T09:56:34;102924.03;;;1.25;66.58
74627;BME280;63132;52.268;5.192;2023-03-01T09:59:19;102910.06;;;1.26;65.68
74627;BME280;63132;52.268;5.192;2023-03-01T10:02:05;102903.91;;;1.32;65.65
74627;BME280;63132;52.268;5.192;2023-03-01T10:07:59;102901.16;;;1.47;63.09
74627;BME280;63132;52.268;5.192;2023-03-01T10:10:38;102904.50;;;1.68;61.84
74627;BME280;63132;52.268;5.192;2023-03-01T10:13:21;102904.50;;;1.67;63.18
74627;BME280;63132;52.268;5.192;2023-03-01T10:15:58;102897.41;;;1.78;62.02
74627;BME280;63132;52.268;5.192;2023-03-01T10:18:30;102900.19;;;1.61;62.38
74627;BME280;63132;52.268;5.192;2023-03-01T10:21:18;102892.25;;;1.72;61.23
74627;BME280;63132;52.268;5.192;2023-03-01T10:23:45;102898.28;;;1.80;61.56
74627;BME280;63132;52.268;5.192;2023-03-01T10:29:23;102881.59;;;1.86;60.58
74627;BME280;63132;52.268;5.192;2023-03-01T10:31:52;102893.78;;;1.95;59.58
74627;BME280;63132;52.268;5.192;2023-03-01T10:34:36;102879.75;;;1.97;57.57
74627;BME280;63132;52.268;5.192;2023-03-01T10:37:13;102883.16;;;2.07;57.84
74627;BME280;63132;52.268;5.192;2023-03-01T10:40:04;102882.09;;;2.24;58.50
74627;BME280;63132;52.268;5.192;2023-03-01T10:42:46;102876.78;;;2.30;57.00
74627;BME280;63132;52.268;5.192;2023-03-01T10:45:37;102882.00;;;2.32;57.20
74627;BME280;63132;52.268;5.192;2023-03-01T10:48:23;102879.41;;;2.30;55.60
74627;BME280;63132;52.268;5.192;2023-03-01T10:51:05;102875.78;;;2.39;56.51
74627;BME280;63132;52.268;5.192;2023-03-01T10:53:42;102862.63;;;2.42;56.49
74627;BME280;63132;52.268;5.192;2023-03-01T10:56:09;102865.16;;;2.48;55.99
74627;BME280;63132;52.268;5.192;2023-03-01T10:58:36;102858.09;;;2.52;56.25
74627;BME280;63132;52.268;5.192;2023-03-01T11:01:05;102860.75;;;2.54;55.38
74627;BME280;63132;52.268;5.192;2023-03-01T11:05:59;102848.34;;;2.62;56.01
74627;BME280;63132;52.268;5.192;2023-03-01T11:08:37;102835.13;;;2.70;56.80
74627;BME280;63132;52.268;5.192;2023-03-01T11:13:34;102833.22;;;2.80;55.54
74627;BME280;63132;52.268;5.192;2023-03-01T11:16:01;102828.97;;;2.72;55.92
74627;BME280;63132;52.268;5.192;2023-03-01T11:18:29;102826.94;;;2.92;55.19
74627;BME280;63132;52.268;5.192;2023-03-01T11:20:55;102825.97;;;2.96;54.43
74627;BME280;63132;52.268;5.192;2023-03-01T11:23:22;102825.91;;;3.01;53.14
74627;BME280;63132;52.268;5.192;2023-03-01T11:25:58;102817.16;;;3.00;53.26
74627;BME280;63132;52.268;5.192;2023-03-01T11:28:25;102814.50;;;3.02;53.57
74627;BME280;63132;52.268;5.192;2023-03-01T11:36:30;102809.16;;;3.08;53.79
74627;BME280;63132;52.268;5.192;2023-03-01T11:38:57;102808.91;;;3.24;53.63
74627;BME280;63132;52.268;5.192;2023-03-01T11:41:30;102808.16;;;3.15;52.60
74627;BME280;63132;52.268;5.192;2023-03-01T11:44:24;102799.16;;;3.29;53.02
74627;BME280;63132;52.268;5.192;2023-03-01T11:50:10;102796.63;;;3.24;53.71
74627;BME280;63132;52.268;5.192;2023-03-01T11:52:49;102790.34;;;3.33;52.62
74627;BME280;63132;52.268;5.192;2023-03-01T11:58:14;102793.88;;;3.30;52.36
74627;BME280;63132;52.268;5.192;2023-03-01T12:01:00;102788.34;;;3.46;52.46
74627;BME280;63132;52.268;5.192;2023-03-01T12:03:56;102785.25;;;3.73;52.28
74627;BME280;63132;52.268;5.192;2023-03-01T12:22:30;102772.88;;;3.76;51.63
74627;BME280;63132;52.268;5.192;2023-03-01T12:40:25;102759.19;;;4.03;50.64
74627;BME280;63132;52.268;5.192;2023-03-01T12:50:48;102748.50;;;4.11;50.92
74627;BME280;63132;52.268;5.192;2023-03-01T12:53:23;102751.94;;;4.16;51.18
74627;BME280;63132;52.268;5.192;2023-03-01T12:55:50;102746.66;;;4.16;51.33
74627;BME280;63132;52.268;5.192;2023-03-01T13:06:17;102740.50;;;4.16;50.69
74627;BME280;63132;52.268;5.192;2023-03-01T13:08:56;102735.84;;;4.29;50.28
74627;BME280;63132;52.268;5.192;2023-03-01T13:11:25;102727.81;;;4.35;50.36
74627;BME280;63132;52.268;5.192;2023-03-01T13:13:51;102731.16;;;4.42;50.34
74627;BME280;63132;52.268;5.192;2023-03-01T13:16:27;102709.47;;;4.29;49.80
74627;BME280;63132;52.268;5.192;2023-03-01T13:19:26;102707.25;;;4.49;49.77
74627;BME280;63132;52.268;5.192;2023-03-01T13:21:54;102698.47;;;4.49;50.33
74627;BME280;63132;52.268;5.192;2023-03-01T13:24:43;102704.19;;;4.68;49.72
74627;BME280;63132;52.268;5.192;2023-03-01T13:29:57;102695.81;;;4.50;48.17
74627;BME280;63132;52.268;5.192;2023-03-01T13:32:33;102679.59;;;4.68;48.39
74627;BME280;63132;52.268;5.192;2023-03-01T13:37:32;102679.19;;;4.48;49.23
74627;BME280;63132;52.268;5.192;2023-03-01T13:40:00;102682.34;;;4.63;48.53
74627;BME280;63132;52.268;5.192;2023-03-01T13:42:35;102671.03;;;4.58;48.27
74627;BME280;63132;52.268;5.192;2023-03-01T13:45:24;102668.94;;;4.72;48.72
74627;BME280;63132;52.268;5.192;2023-03-01T13:47:58;102666.25;;;4.74;47.93
74627;BME280;63132;52.268;5.192;2023-03-01T13:50:27;102669.06;;;4.68;48.71
74627;BME280;63132;52.268;5.192;2023-03-01T13:52:59;102658.50;;;4.68;48.22
74627;BME280;63132;52.268;5.192;2023-03-01T13:55:32;102654.91;;;4.70;48.65
74627;BME280;63132;52.268;5.192;2023-03-01T13:58:03;102655.63;;;4.77;48.17
74627;BME280;63132;52.268;5.192;2023-03-01T14:00:38;102646.72;;;4.83;48.12
74627;BME280;63132;52.268;5.192;2023-03-01T14:05:31;102642.84;;;4.95;48.10
74627;BME280;63132;52.268;5.192;2023-03-01T14:07:57;102635.81;;;4.95;48.12
74627;BME280;63132;52.268;5.192;2023-03-01T14:10:26;102646.22;;;5.02;47.80
74627;BME280;63132;52.268;5.192;2023-03-01T14:13:25;102622.75;;;4.91;48.15
74627;BME280;63132;52.268;5.192;2023-03-01T14:21:17;102614.75;;;4.94;47.85
74627;BME280;63132;52.268;5.192;2023-03-01T14:23:43;102613.94;;;4.92;46.64
74627;BME280;63132;52.268;5.192;2023-03-01T14:26:08;102605.28;;;4.87;46.78
74627;BME280;63132;52.268;5.192;2023-03-01T14:28:37;102599.03;;;4.89;46.38
74627;BME280;63132;52.268;5.192;2023-03-01T14:33:55;102595.59;;;4.87;47.02
74627;BME280;63132;52.268;5.192;2023-03-01T14:36:27;102587.72;;;4.85;47.32
74627;BME280;63132;52.268;5.192;2023-03-01T14:38:53;102597.69;;;5.07;46.35
74627;BME280;63132;52.268;5.192;2023-03-01T14:41:22;102581.97;;;5.03;46.28
74627;BME280;63132;52.268;5.192;2023-03-01T14:43:58;102592.50;;;5.04;46.93